Flight Track Log - Related Links

Times and Time Zones

All times are in EDT time to prevent confusion due to time zone crossing. See the FDX1155 flight status page for this flight to view local times or setup timezone preferences in your user account.

Time Position Orientation Groundspeed Altitude Reporting Facility
EDT Latitude Longitude Course Direction KTS MPH feet Rate Location/Type
Wed 04:28:51 AM 32.9741 -97.3158 183° South 159 183 1,500  Level FlightAware ADS-B (LKPR / PRG)
Wed 04:29:50 AM 32.9257 -97.3111 155° Southeast 207 238 4,100 2,672 Climbing FlightAware ADS-B (LKPR / PRG)
Wed 04:30:50 AM 32.8682 -97.2726 151° Southeast 261 300 6,800 3,076 Climbing FlightAware ADS-B (LKPR / PRG)
Wed 04:31:49 AM 32.8042 -97.2286 149° Southeast 277 319 10,200 2,400 Climbing FlightAware ADS-B (LKPR / PRG)
Wed 04:32:50 AM 32.7271 -97.1762 151° Southeast 355 409 11,600 1,850 Climbing FlightAware ADS-B (LKPR / PRG)
Wed 04:33:49 AM 32.6361 -97.1145 150° Southeast 394 453 13,900 2,622 Climbing FlightAware ADS-B (LKPR / PRG)
Wed 04:34:49 AM 32.5388 -97.0474 150° Southeast 402 463 16,800 2,500 Climbing FlightAware ADS-B (LKPR / PRG)
Wed 04:35:49 AM 32.4407 -96.9805 150° Southeast 424 488 18,900 2,118 Climbing FlightAware ADS-B (LKPR / PRG)
Wed 04:36:14 AM 32.3974 -96.9512 149° Southeast 432 497 19,800 2,118 Climbing FlightAware ADS-B
Wed 04:36:23 AM 32.3821 -96.9405 150° Southeast 435 501 20,100 2,000 Climbing FlightAware ADS-B (EGLF / FAB)
Wed 04:36:44 AM 32.3446 -96.9152 150° Southeast 442 509 20,800 1,800 Climbing FlightAware ADS-B
Wed 04:36:53 AM 32.3257 -96.9024 153° Southeast 449 517 21,000 1,837 Climbing FlightAware ADS-B (EGLF / FAB)
Wed 04:37:33 AM 32.2503 -96.8623 156° South 458 527 22,300 1,902 Climbing FlightAware ADS-B (EGLF / FAB)
Wed 04:37:34 AM 32.2492 -96.8613 156° South 457 526 22,300 2,129 Level FlightAware ADS-B
Wed 04:38:04 AM 32.2004 -96.8357 155° Southeast 460 529 23,400 2,471 Climbing FlightAware ADS-B
Wed 04:38:08 AM 32.1854 -96.8285 155° Southeast 462 532 23,700 2,400 Climbing FlightAware ADS-B (EGLF / FAB)
Wed 04:38:34 AM 32.1303 -96.7980 155° Southeast 462 532 24,600 2,057 Climbing FlightAware ADS-B
Wed 04:38:43 AM 32.1128 -96.7884 156° South 463 533 24,900 2,129 Climbing FlightAware ADS-B (EGLF / FAB)
Wed 04:39:05 AM 32.0716 -96.7664 155° Southeast 462 532 25,700 2,129 Climbing FlightAware ADS-B
Wed 04:39:14 AM 32.0541 -96.7570 155° Southeast 461 531 26,000 2,276 Climbing FlightAware ADS-B (EGLF / FAB)
Wed 04:39:34 AM 32.0140 -96.7360 155° Southeast 460 529 26,800 2,000 Climbing FlightAware ADS-B
Wed 04:39:44 AM 31.9956 -96.7255 155° Southeast 462 532 27,000 300 Climbing FlightAware ADS-B (EGLF / FAB)
Wed 04:40:14 AM 31.9368 -96.6939 155° Southeast 464 534 27,000  Level FlightAware ADS-B
Wed 04:40:44 AM 31.8768 -96.6613 155° Southeast 460 529 27,000  Level FlightAware ADS-B
Wed 04:40:50 AM 31.8684 -96.6571 155° Southeast 460 529 27,000  Level FlightAware ADS-B (LKPR / PRG)
Wed 04:41:15 AM 31.8185 -96.6301 155° Southeast 457 526 27,000  Level FlightAware ADS-B
Wed 04:41:24 AM 31.8011 -96.6208 156° South 457 526 27,000  Level FlightAware ADS-B (EGLF / FAB)
Wed 04:41:44 AM 31.7616 -96.6005 155° Southeast 454 522 27,000  Level FlightAware ADS-B
Wed 04:41:54 AM 31.7433 -96.5903 156° South 456 525 27,000  Level FlightAware ADS-B (EGLF / FAB)
Wed 04:42:14 AM 31.7037 -96.5698 155° Southeast 458 527 27,000  Level FlightAware ADS-B
Wed 04:42:24 AM 31.6855 -96.5594 156° South 460 529 27,000  Level FlightAware ADS-B (EGLF / FAB)
Wed 04:42:44 AM 31.6454 -96.5389 155° Southeast 460 529 27,000  Level FlightAware ADS-B
Wed 04:42:54 AM 31.6284 -96.5295 156° South 462 532 27,000  Level FlightAware ADS-B (EGLF / FAB)
Wed 04:43:14 AM 31.5873 -96.5080 155° Southeast 461 531 27,000  Level FlightAware ADS-B
Wed 04:43:24 AM 31.5687 -96.4975 155° Southeast 462 532 27,000  Level FlightAware ADS-B (EGLF / FAB)
Wed 04:43:44 AM 31.5284 -96.4768 155° Southeast 461 531 27,000  Level FlightAware ADS-B
Wed 04:43:54 AM 31.5100 -96.4665 156° South 462 532 27,000  Level FlightAware ADS-B (EGLF / FAB)
Wed 04:44:14 AM 31.4697 -96.4459 155° Southeast 460 529 27,000  Level FlightAware ADS-B
Wed 04:44:24 AM 31.4513 -96.4355 156° South 460 529 27,000  Level FlightAware ADS-B (EGLF / FAB)
Wed 04:44:44 AM 31.4114 -96.4150 155° Southeast 460 529 27,000  Level FlightAware ADS-B
Wed 04:45:03 AM 31.3737 -96.3944 156° South 461 531 27,000  Level FlightAware ADS-B (EGLF / FAB)
Wed 04:45:14 AM 31.3529 -96.3841 155° Southeast 460 529 27,000  Level FlightAware ADS-B
Wed 04:45:33 AM 31.3167 -96.3645 156° South 462 532 27,000  Level FlightAware ADS-B (EGLF / FAB)
Wed 04:45:44 AM 31.2948 -96.3532 155° Southeast 463 533 27,000  Level FlightAware ADS-B
Wed 04:46:03 AM 31.2585 -96.3335 156° South 463 533 27,000  Level FlightAware ADS-B (EGLF / FAB)
Wed 04:46:14 AM 31.2371 -96.3223 155° Southeast 462 532 27,000  Level FlightAware ADS-B
Wed 04:46:34 AM 31.1977 -96.3017 156° South 462 532 27,000  Level FlightAware ADS-B (EGLF / FAB)
Wed 04:46:44 AM 31.1766 -96.2903 155° Southeast 462 532 27,000  Level FlightAware ADS-B
Wed 04:47:13 AM 31.1200 -96.2604 156° South 462 532 27,000  Level FlightAware ADS-B (EGLF / FAB)
Wed 04:47:14 AM 31.1190 -96.2604 155° Southeast 462 532 27,000  Level FlightAware ADS-B
Wed 04:47:43 AM 31.0635 -96.2308 156° South 462 532 27,000  Level FlightAware ADS-B (EGLF / FAB)
Wed 04:47:44 AM 31.0600 -96.2297 155° Southeast 461 531 27,000  Level FlightAware ADS-B
Wed 04:48:13 AM 31.0049 -96.2001 156° South 459 528 27,000  Level FlightAware ADS-B (EGLF / FAB)
Wed 04:48:14 AM 31.0012 -96.1981 155° Southeast 458 527 27,000 -387 Level FlightAware ADS-B
Wed 04:48:44 AM 30.9447 -96.1686 156° South 449 517 26,800 -1,279 Descending FlightAware ADS-B (EGLF / FAB)
Wed 04:49:15 AM 30.8870 -96.1382 155° Southeast 436 502 25,700 -2,250 Descending FlightAware ADS-B
Wed 04:49:24 AM 30.8707 -96.1296 156° South 434 499 25,300 -2,483 Descending FlightAware ADS-B (EGLF / FAB)
Wed 04:49:44 AM 30.8328 -96.1105 155° Southeast 431 496 24,500 -2,400 Descending FlightAware ADS-B
Wed 04:49:54 AM 30.8157 -96.1011 156° South 432 497 24,100 -2,400 Descending FlightAware ADS-B (EGLF / FAB)
Wed 04:50:14 AM 30.7776 -96.0823 156° South 430 495 23,300 -2,462 Descending FlightAware ADS-B
Wed 04:50:33 AM 30.7439 -96.0643 156° South 431 496 22,500 -2,323 Descending FlightAware ADS-B (EGLF / FAB)
Wed 04:50:45 AM 30.7223 -96.0528 155° Southeast 429 494 22,100 -2,323 Descending FlightAware ADS-B
Wed 04:51:04 AM 30.6880 -96.0347 156° South 428 493 21,300 -2,690 Descending FlightAware ADS-B (EGLF / FAB)
Wed 04:51:14 AM 30.6701 -96.0253 155° Southeast 429 494 20,800 -2,700 Descending FlightAware ADS-B
Wed 04:51:44 AM 30.6148 -95.9971 156° South 430 495 19,500 -2,710 Descending FlightAware ADS-B (EGLF / FAB)
Wed 04:51:45 AM 30.6128 -95.9962 156° South 428 493 19,400 -2,600 Descending FlightAware ADS-B
Wed 04:52:14 AM 30.5595 -95.9694 156° South 423 487 18,200 -2,746 Descending FlightAware ADS-B
Wed 04:52:44 AM 30.5064 -95.9416 156° South 425 489 16,700 -2,700 Descending FlightAware ADS-B (EGLF / FAB)
Wed 04:53:14 AM 30.4530 -95.9137 155° Southeast 414 476 15,500 -2,400 Descending FlightAware ADS-B
Wed 04:53:24 AM 30.4353 -95.9022 147° Southeast 409 471 15,100 -2,400 Descending FlightAware ADS-B
Wed 04:53:34 AM 30.4212 -95.8897 137° Southeast 411 473 14,700 -2,700 Descending FlightAware ADS-B
Wed 04:54:04 AM 30.3806 -95.8412 133° Southeast 406 467 13,300 -2,700 Descending FlightAware ADS-B
Wed 04:54:34 AM 30.3434 -95.7954 131° Southeast 391 450 12,000 -2,780 Descending FlightAware ADS-B
Wed 04:54:45 AM 30.3310 -95.7783 131° Southeast 384 442 11,400 -2,200 Descending FlightAware ADS-B (EGLF / FAB)
Wed 04:55:04 AM 30.3088 -95.7478 130° Southeast 358 412 10,900 -1,400 Descending FlightAware ADS-B
Wed 04:55:15 AM 30.2984 -95.7335 130° Southeast 345 397 10,700 -1,241 Descending FlightAware ADS-B (EGLF / FAB)
Wed 04:55:33 AM 30.2796 -95.7091 130° Southeast 322 371 10,300 -1,235 Descending FlightAware ADS-B
Wed 04:55:49 AM 30.2650 -95.6888 130° Southeast 303 349 10,000 -1,143 Descending FlightAware ADS-B
Wed 04:55:54 AM 30.2604 -95.6827 131° Southeast 298 343 9,900 -1,600 Descending FlightAware ADS-B (EGLF / FAB)
Wed 04:56:04 AM 30.2517 -95.6708 130° Southeast 289 333 9,600 -1,800 Descending FlightAware ADS-B
Wed 04:56:14 AM 30.2429 -95.6592 131° Southeast 284 327 9,300 -1,600 Descending FlightAware ADS-B (EGLF / FAB)
Wed 04:56:19 AM 30.2380 -95.6535 131° Southeast 280 322 9,200 -1,800 Descending FlightAware ADS-B
Wed 04:56:34 AM 30.2258 -95.6368 131° Southeast 273 314 8,700 -1,875 Descending FlightAware ADS-B
Wed 04:56:35 AM 30.2249 -95.6356 131° Southeast 274 315 8,700 -2,400 Level FlightAware ADS-B (EGLF / FAB)
Wed 04:56:49 AM 30.2130 -95.6202 130° Southeast 271 312 8,100 -2,526 Descending FlightAware ADS-B
Wed 04:56:54 AM 30.2092 -95.6146 130° Southeast 273 314 7,900 -2,800 Descending FlightAware ADS-B (EGLF / FAB)
Wed 04:57:04 AM 30.2010 -95.6035 130° Southeast 271 312 7,400 -2,700 Descending FlightAware ADS-B
Wed 04:57:14 AM 30.1929 -95.5924 130° Southeast 272 313 7,000 -2,400 Descending FlightAware ADS-B (EGLF / FAB)
Wed 04:57:19 AM 30.1882 -95.5859 130° Southeast 270 311 6,800 -2,400 Descending FlightAware ADS-B
Wed 04:57:34 AM 30.1762 -95.5706 131° Southeast 267 307 6,200 -2,250 Descending FlightAware ADS-B
Wed 04:57:35 AM 30.1757 -95.5695 131° Southeast 267 307 6,200 -2,000 Level FlightAware ADS-B (EGLF / FAB)
Wed 04:57:49 AM 30.1645 -95.5557 132° Southeast 264 304 5,700 -2,333 Descending FlightAware ADS-B
Wed 04:57:53 AM 30.1608 -95.5505 133° Southeast 263 303 5,500 -2,400 Descending FlightAware ADS-B (EGLF / FAB)
Wed 04:58:04 AM 30.1511 -95.5394 133° Southeast 260 299 5,100 -2,182 Descending FlightAware ADS-B
Wed 04:58:15 AM 30.1425 -95.5283 134° Southeast 255 293 4,700 -2,000 Descending FlightAware ADS-B (EGLF / FAB)
Wed 04:58:19 AM 30.1389 -95.5244 134° Southeast 252 290 4,600 -1,895 Descending FlightAware ADS-B
Wed 04:58:34 AM 30.1267 -95.5091 132° Southeast 242 278 4,100 -2,000 Descending FlightAware ADS-B
Wed 04:58:43 AM 30.1202 -95.5002 127° Southeast 241 277 3,800 -2,100 Descending FlightAware ADS-B
Wed 04:58:54 AM 30.1135 -95.4898 126° Southeast 240 276 3,400 -2,143 Descending FlightAware ADS-B (EGLF / FAB)
Wed 04:58:57 AM 30.1116 -95.4867 125° Southeast 240 276 3,300 -1,412 Descending FlightAware ADS-B
Wed 04:59:11 AM 30.1024 -95.4725 125° Southeast 227 261 3,000 -1,161 Descending FlightAware ADS-B
Wed 04:59:28 AM 30.0923 -95.4565 125° Southeast 210 242 2,700 -783 Descending FlightAware ADS-B
Wed 04:59:34 AM 30.0891 -95.4510 126° Southeast 206 237 2,700 -375 Level FlightAware ADS-B (EGLF / FAB)
Wed 04:59:44 AM 30.0838 -95.4422 125° Southeast 198 228 2,600 -960 Descending FlightAware ADS-B
Wed 04:59:59 AM 30.0761 -95.4293 121° Southeast 188 216 2,300 -1,500 Descending FlightAware ADS-B
Wed 05:00:04 AM 30.0737 -95.4242 121° Southeast 187 215 2,100 -1,600 Descending FlightAware ADS-B (EGLF / FAB)
Wed 05:00:14 AM 30.0697 -95.4166 120° Southeast 178 205 1,900 -900 Descending FlightAware ADS-B
Wed 05:00:24 AM 30.0653 -95.4087 124° Southeast 171 197 1,800 -1,091 Descending FlightAware ADS-B
Wed 05:00:25 AM 30.0650 -95.4079 125° Southeast 171 197 1,700 -1,200 Descending FlightAware ADS-B (EGLF / FAB)
Wed 05:00:29 AM 30.0627 -95.4051 133° Southeast 164 189 1,700  Level FlightAware ADS-B
Wed 05:00:32 AM 30.0619 -95.4039 139° Southeast 161 185 1,700  Level FlightAware ADS-B
Wed 05:00:35 AM 30.0596 -95.4018 148° Southeast 156 180 1,700  Level FlightAware ADS-B (EGLF / FAB)
Wed 05:00:37 AM 30.0606 -95.4027 152° Southeast 153 176 1,700 -1,286 Level FlightAware ADS-B
Wed 05:00:49 AM 30.0502 -95.3967 153° Southeast 145 167 1,400 -1,412 Descending FlightAware ADS-B
Wed 05:00:54 AM 30.0479 -95.3956 151° Southeast 142 163 1,300 -1,000 Descending FlightAware ADS-B
Wed 05:00:55 AM 30.0470 -95.3948 151° Southeast 141 162 1,300 -800 Level FlightAware ADS-B (EGLF / FAB)
Wed 05:01:09 AM 30.0394 -95.3899 151° Southeast 129 148 1,100 -947 Descending FlightAware ADS-B
Wed 05:01:14 AM 30.0368 -95.3882 151° Southeast 123 142 1,000 -800 Descending FlightAware ADS-B (EGLF / FAB)
Wed 05:01:24 AM 30.0318 -95.3853 152° Southeast 115 132 900 -571 Descending FlightAware ADS-B
Wed 05:01:35 AM 30.0269 -95.3821 152° Southeast 114 131 800 -800 Descending FlightAware ADS-B (EGLF / FAB)
Wed 05:01:39 AM 30.0247 -95.3809 150° Southeast 113 130 700 -947 Descending FlightAware ADS-B
Wed 05:01:54 AM 30.0177 -95.3764 152° Southeast 117 135 500 -750 Descending FlightAware ADS-B
Wed 05:01:55 AM 30.0175 -95.3761 153° Southeast 117 135 500 -400 Level FlightAware ADS-B (EGLF / FAB)
Wed 05:02:09 AM 30.0107 -95.3719 151° Southeast 120 138 400 -632 Descending FlightAware ADS-B
Wed 05:02:14 AM 30.0077 -95.3701 152° Southeast 123 142 300 -600 Descending FlightAware ADS-B (EGLF / FAB)
Wed 05:02:29 AM 30.0003 -95.3657 151° Southeast 121 139 200 -600 Descending FlightAware ADS-B
Wed 05:02:34 AM 29.9981 -95.3641 152° Southeast 120 138 100 -1,200 Descending FlightAware ADS-B (EGLF / FAB)
Wed 05:02:59 AM 29.9862 -95.3571 152° Southeast 125 144 -240 Descending FlightAware ADS-B

Login

Don't have an account? Register now (free) for customized features, flight alerts, and more!